sensor_id;sensor_type;location;lat;lon;timestamp;pressure;altitude;pressure_sealevel;temperature;humidity
57847;BME280;43675;50.030;21.952;2023-01-28T00:01:18;99094.04;;;-1.01;72.87
57847;BME280;43675;50.030;21.952;2023-01-28T00:03:48;99091.95;;;-1.01;72.84
57847;BME280;43675;50.030;21.952;2023-01-28T00:06:15;99092.83;;;-1.01;72.71
57847;BME280;43675;50.030;21.952;2023-01-28T00:08:42;99087.74;;;-1.01;72.76
57847;BME280;43675;50.030;21.952;2023-01-28T00:11:10;99090.40;;;-1.02;72.97
57847;BME280;43675;50.030;21.952;2023-01-28T00:13:37;99086.80;;;-0.92;72.68
57847;BME280;43675;50.030;21.952;2023-01-28T00:16:05;99087.65;;;-0.86;72.58
57847;BME280;43675;50.030;21.952;2023-01-28T00:18:33;99084.28;;;-0.79;72.33
57847;BME280;43675;50.030;21.952;2023-01-28T00:21:11;99087.02;;;-0.84;72.36
57847;BME280;43675;50.030;21.952;2023-01-28T00:23:39;99086.79;;;-0.92;72.82
57847;BME280;43675;50.030;21.952;2023-01-28T00:26:13;99094.08;;;-0.95;72.81
57847;BME280;43675;50.030;21.952;2023-01-28T00:28:41;99096.14;;;-0.97;72.96
57847;BME280;43675;50.030;21.952;2023-01-28T00:31:14;99096.41;;;-0.96;72.52
57847;BME280;43675;50.030;21.952;2023-01-28T00:33:41;99099.56;;;-0.96;72.96
57847;BME280;43675;50.030;21.952;2023-01-28T00:36:08;99102.45;;;-0.82;72.68
57847;BME280;43675;50.030;21.952;2023-01-28T00:38:35;99100.03;;;-0.68;72.38
57847;BME280;43675;50.030;21.952;2023-01-28T00:41:15;99100.61;;;-0.71;72.11
57847;BME280;43675;50.030;21.952;2023-01-28T00:43:43;99099.52;;;-0.79;72.42
57847;BME280;43675;50.030;21.952;2023-01-28T00:46:11;99100.42;;;-0.77;72.31
57847;BME280;43675;50.030;21.952;2023-01-28T00:48:39;99101.89;;;-0.70;72.25
57847;BME280;43675;50.030;21.952;2023-01-28T00:51:07;99108.55;;;-0.72;72.27
57847;BME280;43675;50.030;21.952;2023-01-28T00:53:34;99104.80;;;-0.61;72.24
57847;BME280;43675;50.030;21.952;2023-01-28T00:56:02;99108.17;;;-0.58;71.93
57847;BME280;43675;50.030;21.952;2023-01-28T00:58:29;99113.27;;;-0.67;72.02
57847;BME280;43675;50.030;21.952;2023-01-28T01:00:55;99110.80;;;-0.77;72.19
57847;BME280;43675;50.030;21.952;2023-01-28T01:03:22;99110.40;;;-0.85;72.16
57847;BME280;43675;50.030;21.952;2023-01-28T01:05:49;99106.64;;;-0.90;72.33
57847;BME280;43675;50.030;21.952;2023-01-28T01:08:15;99112.91;;;-0.93;72.45
57847;BME280;43675;50.030;21.952;2023-01-28T01:10:42;99111.54;;;-0.96;72.46
57847;BME280;43675;50.030;21.952;2023-01-28T01:13:08;99112.14;;;-0.97;72.53
57847;BME280;43675;50.030;21.952;2023-01-28T01:15:35;99112.79;;;-0.98;72.41
57847;BME280;43675;50.030;21.952;2023-01-28T01:18:01;99119.50;;;-1.01;72.48
57847;BME280;43675;50.030;21.952;2023-01-28T01:20:28;99117.61;;;-1.03;72.59
57847;BME280;43675;50.030;21.952;2023-01-28T01:22:55;99119.39;;;-1.06;72.50
57847;BME280;43675;50.030;21.952;2023-01-28T01:25:21;99121.25;;;-1.07;72.36
57847;BME280;43675;50.030;21.952;2023-01-28T01:27:48;99120.65;;;-1.08;72.58
57847;BME280;43675;50.030;21.952;2023-01-28T01:30:15;99118.26;;;-1.09;72.50
57847;BME280;43675;50.030;21.952;2023-01-28T01:32:42;99118.98;;;-1.09;72.52
57847;BME280;43675;50.030;21.952;2023-01-28T01:35:09;99122.23;;;-1.08;72.46
57847;BME280;43675;50.030;21.952;2023-01-28T01:37:36;99118.19;;;-1.08;72.62
57847;BME280;43675;50.030;21.952;2023-01-28T01:40:03;99119.98;;;-1.10;72.24
57847;BME280;43675;50.030;21.952;2023-01-28T01:42:32;99120.13;;;-1.12;72.36
57847;BME280;43675;50.030;21.952;2023-01-28T01:47:39;99119.53;;;-1.13;72.28
57847;BME280;43675;50.030;21.952;2023-01-28T01:50:36;99130.14;;;-1.14;72.24
57847;BME280;43675;50.030;21.952;2023-01-28T01:53:06;99133.52;;;-1.13;72.02
57847;BME280;43675;50.030;21.952;2023-01-28T01:55:35;99129.70;;;-1.09;71.88
57847;BME280;43675;50.030;21.952;2023-01-28T01:58:08;99127.41;;;-1.07;71.94
57847;BME280;43675;50.030;21.952;2023-01-28T02:00:37;99128.44;;;-1.07;71.98
57847;BME280;43675;50.030;21.952;2023-01-28T02:03:04;99129.02;;;-1.07;71.81
57847;BME280;43675;50.030;21.952;2023-01-28T02:05:32;99128.10;;;-1.09;72.05
57847;BME280;43675;50.030;21.952;2023-01-28T02:07:59;99131.21;;;-1.10;71.91
57847;BME280;43675;50.030;21.952;2023-01-28T02:10:26;99126.21;;;-1.11;71.89
57847;BME280;43675;50.030;21.952;2023-01-28T02:12:54;99132.45;;;-1.12;72.04
57847;BME280;43675;50.030;21.952;2023-01-28T02:15:24;99131.27;;;-1.13;72.08
57847;BME280;43675;50.030;21.952;2023-01-28T02:17:51;99131.31;;;-1.11;71.93
57847;BME280;43675;50.030;21.952;2023-01-28T02:26:09;99132.10;;;-1.19;71.98
57847;BME280;43675;50.030;21.952;2023-01-28T02:37:03;99133.84;;;-1.28;71.99
57847;BME280;43675;50.030;21.952;2023-01-28T02:39:37;99133.79;;;-1.28;71.94
57847;BME280;43675;50.030;21.952;2023-01-28T02:42:18;99131.53;;;-1.26;71.83
57847;BME280;43675;50.030;21.952;2023-01-28T02:44:46;99137.36;;;-1.27;71.88
57847;BME280;43675;50.030;21.952;2023-01-28T02:47:14;99135.13;;;-1.29;71.63
57847;BME280;43675;50.030;21.952;2023-01-28T02:49:52;99138.64;;;-1.31;71.68
57847;BME280;43675;50.030;21.952;2023-01-28T03:01:30;99133.49;;;-1.29;71.85
57847;BME280;43675;50.030;21.952;2023-01-28T03:04:05;99133.73;;;-1.27;71.62
57847;BME280;43675;50.030;21.952;2023-01-28T03:06:47;99137.30;;;-1.26;71.36
57847;BME280;43675;50.030;21.952;2023-01-28T03:09:17;99140.20;;;-1.27;71.65
57847;BME280;43675;50.030;21.952;2023-01-28T03:12:18;99140.17;;;-1.27;71.60
57847;BME280;43675;50.030;21.952;2023-01-28T03:15:00;99136.68;;;-1.27;71.69
57847;BME280;43675;50.030;21.952;2023-01-28T03:20:08;99138.80;;;-1.27;71.44
57847;BME280;43675;50.030;21.952;2023-01-28T03:22:36;99138.52;;;-1.30;71.43
57847;BME280;43675;50.030;21.952;2023-01-28T03:25:07;99132.89;;;-1.32;71.35
57847;BME280;43675;50.030;21.952;2023-01-28T03:27:53;99130.73;;;-1.31;71.43
57847;BME280;43675;50.030;21.952;2023-01-28T03:30:42;99133.99;;;-1.30;71.15
57847;BME280;43675;50.030;21.952;2023-01-28T03:33:11;99134.14;;;-1.28;71.23
57847;BME280;43675;50.030;21.952;2023-01-28T03:35:39;99136.73;;;-1.27;71.35
57847;BME280;43675;50.030;21.952;2023-01-28T03:38:07;99130.05;;;-1.31;71.09
57847;BME280;43675;50.030;21.952;2023-01-28T03:40:35;99134.42;;;-1.35;71.42
57847;BME280;43675;50.030;21.952;2023-01-28T03:43:01;99132.38;;;-1.36;71.23
57847;BME280;43675;50.030;21.952;2023-01-28T03:45:28;99134.16;;;-1.38;71.25
57847;BME280;43675;50.030;21.952;2023-01-28T03:47:54;99128.88;;;-1.40;71.24
57847;BME280;43675;50.030;21.952;2023-01-28T03:50:21;99130.90;;;-1.41;71.26
57847;BME280;43675;50.030;21.952;2023-01-28T03:52:47;99135.90;;;-1.42;71.29
57847;BME280;43675;50.030;21.952;2023-01-28T03:55:14;99135.21;;;-1.45;71.26
57847;BME280;43675;50.030;21.952;2023-01-28T03:57:40;99140.09;;;-1.47;70.89
57847;BME280;43675;50.030;21.952;2023-01-28T04:00:07;99136.42;;;-1.49;71.30
57847;BME280;43675;50.030;21.952;2023-01-28T04:02:34;99136.45;;;-1.51;71.04
57847;BME280;43675;50.030;21.952;2023-01-28T04:05:01;99137.58;;;-1.52;71.20
57847;BME280;43675;50.030;21.952;2023-01-28T04:07:27;99138.66;;;-1.52;71.36
57847;BME280;43675;50.030;21.952;2023-01-28T04:09:54;99143.63;;;-1.55;71.07
57847;BME280;43675;50.030;21.952;2023-01-28T04:12:21;99145.87;;;-1.59;71.07
57847;BME280;43675;50.030;21.952;2023-01-28T04:14:47;99150.38;;;-1.63;70.80
57847;BME280;43675;50.030;21.952;2023-01-28T04:17:14;99153.67;;;-1.64;71.07
57847;BME280;43675;50.030;21.952;2023-01-28T04:19:40;99158.54;;;-1.65;70.67
57847;BME280;43675;50.030;21.952;2023-01-28T04:22:09;99157.70;;;-1.66;70.84
57847;BME280;43675;50.030;21.952;2023-01-28T04:24:36;99157.55;;;-1.62;71.17
57847;BME280;43675;50.030;21.952;2023-01-28T04:27:03;99154.59;;;-1.41;70.61
57847;BME280;43675;50.030;21.952;2023-01-28T04:29:29;99150.71;;;-1.29;70.29
57847;BME280;43675;50.030;21.952;2023-01-28T04:31:56;99157.17;;;-1.33;70.46
57847;BME280;43675;50.030;21.952;2023-01-28T04:34:22;99158.70;;;-1.38;70.29
57847;BME280;43675;50.030;21.952;2023-01-28T04:36:49;99159.88;;;-1.42;70.72
57847;BME280;43675;50.030;21.952;2023-01-28T04:39:15;99166.42;;;-1.45;70.50
57847;BME280;43675;50.030;21.952;2023-01-28T04:41:42;99164.88;;;-1.45;70.31
57847;BME280;43675;50.030;21.952;2023-01-28T04:44:08;99167.17;;;-1.45;70.06
57847;BME280;43675;50.030;21.952;2023-01-28T04:46:35;99167.10;;;-1.47;70.33
57847;BME280;43675;50.030;21.952;2023-01-28T04:49:01;99169.77;;;-1.47;70.31
57847;BME280;43675;50.030;21.952;2023-01-28T04:51:28;99172.02;;;-1.49;70.17
57847;BME280;43675;50.030;21.952;2023-01-28T04:53:55;99174.66;;;-1.51;70.16
57847;BME280;43675;50.030;21.952;2023-01-28T04:56:21;99175.45;;;-1.52;70.16
57847;BME280;43675;50.030;21.952;2023-01-28T04:58:48;99172.63;;;-1.54;70.11
57847;BME280;43675;50.030;21.952;2023-01-28T05:01:14;99173.18;;;-1.56;70.05
57847;BME280;43675;50.030;21.952;2023-01-28T05:03:41;99176.66;;;-1.58;70.33
57847;BME280;43675;50.030;21.952;2023-01-28T05:06:07;99175.52;;;-1.59;69.94
57847;BME280;43675;50.030;21.952;2023-01-28T05:08:34;99180.20;;;-1.60;70.15
57847;BME280;43675;50.030;21.952;2023-01-28T05:11:00;99176.60;;;-1.61;70.06
57847;BME280;43675;50.030;21.952;2023-01-28T05:13:27;99174.67;;;-1.61;69.84
57847;BME280;43675;50.030;21.952;2023-01-28T05:15:53;99175.66;;;-1.61;69.85
57847;BME280;43675;50.030;21.952;2023-01-28T05:18:20;99176.66;;;-1.60;69.76
57847;BME280;43675;50.030;21.952;2023-01-28T05:20:47;99177.71;;;-1.60;69.79
57847;BME280;43675;50.030;21.952;2023-01-28T05:23:13;99178.03;;;-1.62;69.92
57847;BME280;43675;50.030;21.952;2023-01-28T05:25:40;99179.79;;;-1.62;69.73
57847;BME280;43675;50.030;21.952;2023-01-28T05:28:06;99180.87;;;-1.60;69.97
57847;BME280;43675;50.030;21.952;2023-01-28T05:30:33;99185.68;;;-1.59;69.92
57847;BME280;43675;50.030;21.952;2023-01-28T05:33:00;99185.25;;;-1.60;69.75
57847;BME280;43675;50.030;21.952;2023-01-28T05:35:26;99182.28;;;-1.60;69.92
57847;BME280;43675;50.030;21.952;2023-01-28T05:37:53;99187.88;;;-1.60;69.74
57847;BME280;43675;50.030;21.952;2023-01-28T05:40:19;99190.31;;;-1.62;69.80
57847;BME280;43675;50.030;21.952;2023-01-28T05:42:46;99195.15;;;-1.65;69.89
57847;BME280;43675;50.030;21.952;2023-01-28T05:45:12;99197.29;;;-1.67;69.78
57847;BME280;43675;50.030;21.952;2023-01-28T05:47:39;99192.52;;;-1.69;69.77
57847;BME280;43675;50.030;21.952;2023-01-28T05:50:06;99197.14;;;-1.70;69.80
57847;BME280;43675;50.030;21.952;2023-01-28T05:52:33;99199.34;;;-1.71;69.88
57847;BME280;43675;50.030;21.952;2023-01-28T05:55:00;99200.42;;;-1.73;69.94
57847;BME280;43675;50.030;21.952;2023-01-28T05:57:26;99199.35;;;-1.73;69.88
57847;BME280;43675;50.030;21.952;2023-01-28T05:59:53;99198.02;;;-1.72;69.92
57847;BME280;43675;50.030;21.952;2023-01-28T06:02:20;99203.09;;;-1.72;70.11
57847;BME280;43675;50.030;21.952;2023-01-28T06:04:46;99201.43;;;-1.73;69.94
57847;BME280;43675;50.030;21.952;2023-01-28T06:07:13;99202.73;;;-1.72;70.02
57847;BME280;43675;50.030;21.952;2023-01-28T06:09:39;99196.99;;;-1.72;70.08
57847;BME280;43675;50.030;21.952;2023-01-28T06:12:06;99198.66;;;-1.72;70.15
57847;BME280;43675;50.030;21.952;2023-01-28T06:14:33;99200.77;;;-1.72;70.29
57847;BME280;43675;50.030;21.952;2023-01-28T06:16:59;99205.01;;;-1.70;69.94
57847;BME280;43675;50.030;21.952;2023-01-28T06:19:26;99206.80;;;-1.70;70.12
57847;BME280;43675;50.030;21.952;2023-01-28T06:21:52;99212.76;;;-1.70;70.05
57847;BME280;43675;50.030;21.952;2023-01-28T06:24:19;99217.28;;;-1.72;70.01
57847;BME280;43675;50.030;21.952;2023-01-28T06:26:46;99217.85;;;-1.72;70.21
57847;BME280;43675;50.030;21.952;2023-01-28T06:29:13;99211.06;;;-1.71;70.14
57847;BME280;43675;50.030;21.952;2023-01-28T06:31:39;99214.52;;;-1.70;70.26
57847;BME280;43675;50.030;21.952;2023-01-28T06:34:06;99214.60;;;-1.69;70.24
57847;BME280;43675;50.030;21.952;2023-01-28T06:36:32;99217.95;;;-1.69;70.24
57847;BME280;43675;50.030;21.952;2023-01-28T06:38:59;99218.81;;;-1.69;70.09
57847;BME280;43675;50.030;21.952;2023-01-28T06:41:26;99224.29;;;-1.68;70.10
57847;BME280;43675;50.030;21.952;2023-01-28T06:43:52;99226.63;;;-1.64;70.16
57847;BME280;43675;50.030;21.952;2023-01-28T06:46:19;99233.42;;;-1.61;70.02
57847;BME280;43675;50.030;21.952;2023-01-28T06:48:45;99237.08;;;-1.59;69.92
57847;BME280;43675;50.030;21.952;2023-01-28T06:51:12;99240.82;;;-1.55;70.12
57847;BME280;43675;50.030;21.952;2023-01-28T06:53:39;99241.81;;;-1.52;70.06
57847;BME280;43675;50.030;21.952;2023-01-28T06:56:05;99245.43;;;-1.49;69.67
57847;BME280;43675;50.030;21.952;2023-01-28T06:58:33;99244.88;;;-1.45;69.80
57847;BME280;43675;50.030;21.952;2023-01-28T07:01:00;99248.73;;;-1.40;69.53
57847;BME280;43675;50.030;21.952;2023-01-28T07:03:26;99247.70;;;-1.38;69.47
57847;BME280;43675;50.030;21.952;2023-01-28T07:05:53;99251.92;;;-1.36;69.61
57847;BME280;43675;50.030;21.952;2023-01-28T07:08:19;99253.07;;;-1.35;69.44
57847;BME280;43675;50.030;21.952;2023-01-28T07:10:46;99250.27;;;-1.33;69.43
57847;BME280;43675;50.030;21.952;2023-01-28T07:13:12;99253.38;;;-1.32;69.35
57847;BME280;43675;50.030;21.952;2023-01-28T07:15:39;99255.23;;;-1.32;69.39
57847;BME280;43675;50.030;21.952;2023-01-28T07:18:06;99258.27;;;-1.28;69.41
57847;BME280;43675;50.030;21.952;2023-01-28T07:20:32;99261.23;;;-1.24;69.10
57847;BME280;43675;50.030;21.952;2023-01-28T07:22:59;99261.64;;;-1.22;68.86
57847;BME280;43675;50.030;21.952;2023-01-28T07:25:25;99267.20;;;-1.21;69.14
57847;BME280;43675;50.030;21.952;2023-01-28T07:27:52;99270.02;;;-1.24;68.75
57847;BME280;43675;50.030;21.952;2023-01-28T07:30:19;99270.48;;;-1.27;68.82
57847;BME280;43675;50.030;21.952;2023-01-28T07:32:46;99272.61;;;-1.23;68.71
57847;BME280;43675;50.030;21.952;2023-01-28T07:35:17;99276.77;;;-1.18;68.83
57847;BME280;43675;50.030;21.952;2023-01-28T07:37:50;99279.02;;;-1.16;68.62
57847;BME280;43675;50.030;21.952;2023-01-28T07:40:17;99280.41;;;-1.16;68.51
57847;BME280;43675;50.030;21.952;2023-01-28T07:42:43;99277.25;;;-1.16;68.41
57847;BME280;43675;50.030;21.952;2023-01-28T07:45:10;99277.45;;;-1.14;68.48
57847;BME280;43675;50.030;21.952;2023-01-28T07:47:37;99279.49;;;-1.11;68.14
57847;BME280;43675;50.030;21.952;2023-01-28T07:50:03;99277.11;;;-1.08;68.12
57847;BME280;43675;50.030;21.952;2023-01-28T07:52:30;99283.05;;;-1.07;68.24
57847;BME280;43675;50.030;21.952;2023-01-28T07:54:57;99280.84;;;-1.04;68.21
57847;BME280;43675;50.030;21.952;2023-01-28T07:57:23;99280.58;;;-0.99;68.25
57847;BME280;43675;50.030;21.952;2023-01-28T07:59:50;99281.34;;;-0.93;67.93
57847;BME280;43675;50.030;21.952;2023-01-28T08:02:17;99282.48;;;-0.88;67.76
57847;BME280;43675;50.030;21.952;2023-01-28T08:04:45;99279.16;;;-0.84;67.69
57847;BME280;43675;50.030;21.952;2023-01-28T08:07:11;99276.36;;;-0.80;67.85
57847;BME280;43675;50.030;21.952;2023-01-28T08:09:38;99277.55;;;-0.73;67.74
57847;BME280;43675;50.030;21.952;2023-01-28T08:12:05;99281.38;;;-0.71;67.49
57847;BME280;43675;50.030;21.952;2023-01-28T08:14:31;99284.02;;;-0.69;67.29
57847;BME280;43675;50.030;21.952;2023-01-28T08:16:58;99288.52;;;-0.66;67.38
57847;BME280;43675;50.030;21.952;2023-01-28T08:19:25;99288.48;;;-0.63;67.12
57847;BME280;43675;50.030;21.952;2023-01-28T08:21:51;99286.98;;;-0.60;67.13
57847;BME280;43675;50.030;21.952;2023-01-28T08:24:18;99284.08;;;-0.53;67.30
57847;BME280;43675;50.030;21.952;2023-01-28T08:26:47;99289.19;;;-0.49;66.99
57847;BME280;43675;50.030;21.952;2023-01-28T08:29:13;99284.11;;;-0.47;66.92
57847;BME280;43675;50.030;21.952;2023-01-28T08:31:40;99284.33;;;-0.43;66.85
57847;BME280;43675;50.030;21.952;2023-01-28T08:34:06;99285.52;;;-0.35;66.65
57847;BME280;43675;50.030;21.952;2023-01-28T08:36:33;99285.79;;;-0.30;66.30
57847;BME280;43675;50.030;21.952;2023-01-28T08:38:59;99285.27;;;-0.24;66.63
57847;BME280;43675;50.030;21.952;2023-01-28T08:41:26;99283.71;;;-0.16;66.33
57847;BME280;43675;50.030;21.952;2023-01-28T08:43:53;99281.17;;;-0.09;66.51
57847;BME280;43675;50.030;21.952;2023-01-28T08:46:19;99280.34;;;0.00;66.28
57847;BME280;43675;50.030;21.952;2023-01-28T08:48:48;99279.30;;;0.06;66.21
57847;BME280;43675;50.030;21.952;2023-01-28T08:51:15;99280.29;;;0.13;66.12
57847;BME280;43675;50.030;21.952;2023-01-28T08:53:42;99279.62;;;0.17;65.92
57847;BME280;43675;50.030;21.952;2023-01-28T08:56:08;99285.13;;;0.20;65.71
57847;BME280;43675;50.030;21.952;2023-01-28T08:58:35;99286.51;;;0.22;65.72
57847;BME280;43675;50.030;21.952;2023-01-28T09:01:05;99288.27;;;0.26;65.63
57847;BME280;43675;50.030;21.952;2023-01-28T09:03:31;99288.34;;;0.29;65.67
57847;BME280;43675;50.030;21.952;2023-01-28T09:05:59;99289.58;;;0.39;65.53
57847;BME280;43675;50.030;21.952;2023-01-28T09:08:26;99292.55;;;0.51;65.32
57847;BME280;43675;50.030;21.952;2023-01-28T09:10:57;99297.02;;;0.74;65.00
57847;BME280;43675;50.030;21.952;2023-01-28T09:13:23;99301.10;;;0.73;64.41
57847;BME280;43675;50.030;21.952;2023-01-28T09:15:50;99303.76;;;0.64;64.39
57847;BME280;43675;50.030;21.952;2023-01-28T09:18:17;99306.40;;;0.56;64.38
57847;BME280;43675;50.030;21.952;2023-01-28T09:20:44;99309.80;;;0.49;64.63
57847;BME280;43675;50.030;21.952;2023-01-28T09:23:11;99300.71;;;0.46;64.52
57847;BME280;43675;50.030;21.952;2023-01-28T09:25:38;99303.26;;;0.46;64.67
57847;BME280;43675;50.030;21.952;2023-01-28T09:28:05;99304.08;;;0.48;64.63
57847;BME280;43675;50.030;21.952;2023-01-28T09:30:32;99303.15;;;0.53;64.56
57847;BME280;43675;50.030;21.952;2023-01-28T09:32:58;99304.59;;;0.56;64.37
57847;BME280;43675;50.030;21.952;2023-01-28T09:35:25;99303.23;;;0.68;64.21
57847;BME280;43675;50.030;21.952;2023-01-28T09:37:55;99301.39;;;0.70;64.08
57847;BME280;43675;50.030;21.952;2023-01-28T09:40:33;99297.95;;;0.69;64.02
57847;BME280;43675;50.030;21.952;2023-01-28T09:45:42;99286.31;;;1.08;63.57
57847;BME280;43675;50.030;21.952;2023-01-28T09:48:15;99283.72;;;1.19;63.37
57847;BME280;43675;50.030;21.952;2023-01-28T09:50:46;99282.20;;;1.24;63.51
57847;BME280;43675;50.030;21.952;2023-01-28T09:53:21;99281.16;;;1.24;63.31
57847;BME280;43675;50.030;21.952;2023-01-28T09:58:18;99273.20;;;1.35;63.13
57847;BME280;43675;50.030;21.952;2023-01-28T10:09:30;99269.48;;;1.53;62.88
57847;BME280;43675;50.030;21.952;2023-01-28T10:17:46;99261.08;;;1.47;62.47
57847;BME280;43675;50.030;21.952;2023-01-28T10:20:22;99263.45;;;1.40;62.23
57847;BME280;43675;50.030;21.952;2023-01-28T10:23:03;99262.70;;;1.34;62.48
57847;BME280;43675;50.030;21.952;2023-01-28T10:25:34;99264.92;;;1.50;62.26
57847;BME280;43675;50.030;21.952;2023-01-28T10:28:01;99265.05;;;1.72;62.01
57847;BME280;43675;50.030;21.952;2023-01-28T10:30:32;99254.90;;;1.87;61.69
57847;BME280;43675;50.030;21.952;2023-01-28T10:33:14;99255.04;;;2.06;61.60
57847;BME280;43675;50.030;21.952;2023-01-28T10:35:42;99255.98;;;2.22;61.12
57847;BME280;43675;50.030;21.952;2023-01-28T10:38:13;99252.52;;;2.18;61.06
57847;BME280;43675;50.030;21.952;2023-01-28T10:40:41;99253.86;;;2.14;61.11
57847;BME280;43675;50.030;21.952;2023-01-28T10:43:08;99253.12;;;2.13;60.98
57847;BME280;43675;50.030;21.952;2023-01-28T10:48:32;99252.76;;;1.98;60.88
57847;BME280;43675;50.030;21.952;2023-01-28T10:51:01;99252.61;;;1.97;60.88
57847;BME280;43675;50.030;21.952;2023-01-28T10:56:02;99247.94;;;2.28;60.27
57847;BME280;43675;50.030;21.952;2023-01-28T10:58:32;99249.15;;;2.30;60.22
57847;BME280;43675;50.030;21.952;2023-01-28T11:01:00;99248.81;;;2.30;60.09
57847;BME280;43675;50.030;21.952;2023-01-28T11:03:28;99242.70;;;2.33;60.29
57847;BME280;43675;50.030;21.952;2023-01-28T11:05:56;99247.87;;;2.52;60.01
57847;BME280;43675;50.030;21.952;2023-01-28T11:08:25;99241.73;;;2.61;59.77
57847;BME280;43675;50.030;21.952;2023-01-28T11:10:53;99234.97;;;2.75;59.19
57847;BME280;43675;50.030;21.952;2023-01-28T11:13:28;99236.02;;;2.90;59.10
57847;BME280;43675;50.030;21.952;2023-01-28T11:16:05;99232.57;;;3.01;58.66
57847;BME280;43675;50.030;21.952;2023-01-28T11:18:47;99229.44;;;3.13;58.67
57847;BME280;43675;50.030;21.952;2023-01-28T11:21:23;99225.29;;;3.21;58.13
57847;BME280;43675;50.030;21.952;2023-01-28T11:24:00;99230.83;;;3.34;58.97
57847;BME280;43675;50.030;21.952;2023-01-28T11:26:30;99229.41;;;3.50;58.40
57847;BME280;43675;50.030;21.952;2023-01-28T11:28:58;99223.37;;;3.53;57.93
57847;BME280;43675;50.030;21.952;2023-01-28T11:31:25;99227.27;;;3.50;57.52
57847;BME280;43675;50.030;21.952;2023-01-28T11:36:27;99226.73;;;3.50;57.48
57847;BME280;43675;50.030;21.952;2023-01-28T11:39:02;99224.23;;;3.48;57.57
57847;BME280;43675;50.030;21.952;2023-01-28T11:41:35;99226.04;;;3.45;57.06
57847;BME280;43675;50.030;21.952;2023-01-28T11:46:47;99222.73;;;2.97;57.26
57847;BME280;43675;50.030;21.952;2023-01-28T11:52:04;99229.93;;;2.67;57.15
57847;BME280;43675;50.030;21.952;2023-01-28T11:54:52;99225.85;;;2.50;57.60
57847;BME280;43675;50.030;21.952;2023-01-28T11:57:31;99222.11;;;2.34;57.86
57847;BME280;43675;50.030;21.952;2023-01-28T12:02:54;99218.37;;;2.44;57.85
57847;BME280;43675;50.030;21.952;2023-01-28T12:08:21;99223.52;;;2.61;57.35
57847;BME280;43675;50.030;21.952;2023-01-28T12:11:12;99223.35;;;2.75;57.01
57847;BME280;43675;50.030;21.952;2023-01-28T12:14:06;99222.45;;;2.68;56.97
57847;BME280;43675;50.030;21.952;2023-01-28T12:19:15;99219.96;;;2.42;57.20
57847;BME280;43675;50.030;21.952;2023-01-28T12:27:33;99224.54;;;2.31;57.83
57847;BME280;43675;50.030;21.952;2023-01-28T12:33:37;99223.57;;;2.59;57.49
57847;BME280;43675;50.030;21.952;2023-01-28T12:36:28;99220.14;;;2.75;57.03
57847;BME280;43675;50.030;21.952;2023-01-28T12:45:17;99223.56;;;2.59;57.11
57847;BME280;43675;50.030;21.952;2023-01-28T12:48:00;99223.47;;;2.56;57.46
57847;BME280;43675;50.030;21.952;2023-01-28T12:50:32;99228.45;;;2.70;57.10
57847;BME280;43675;50.030;21.952;2023-01-28T12:53:20;99227.35;;;2.63;57.00
57847;BME280;43675;50.030;21.952;2023-01-28T12:56:04;99226.65;;;2.58;56.99
57847;BME280;43675;50.030;21.952;2023-01-28T12:58:44;99227.14;;;2.49;56.58
57847;BME280;43675;50.030;21.952;2023-01-28T13:01:17;99227.89;;;2.42;56.82
57847;BME280;43675;50.030;21.952;2023-01-28T13:04:00;99229.39;;;2.37;56.91
57847;BME280;43675;50.030;21.952;2023-01-28T13:06:32;99228.67;;;2.28;57.34
57847;BME280;43675;50.030;21.952;2023-01-28T13:09:10;99229.27;;;2.13;57.34
57847;BME280;43675;50.030;21.952;2023-01-28T13:11:40;99228.74;;;2.06;57.22
57847;BME280;43675;50.030;21.952;2023-01-28T13:14:10;99233.02;;;1.85;57.42
57847;BME280;43675;50.030;21.952;2023-01-28T13:16:38;99237.79;;;1.67;58.08
57847;BME280;43675;50.030;21.952;2023-01-28T13:21:45;99239.36;;;1.47;58.58
57847;BME280;43675;50.030;21.952;2023-01-28T13:26:43;99241.67;;;1.37;58.89
57847;BME280;43675;50.030;21.952;2023-01-28T13:31:42;99249.77;;;1.31;59.06
57847;BME280;43675;50.030;21.952;2023-01-28T13:34:34;99253.45;;;1.32;59.07
57847;BME280;43675;50.030;21.952;2023-01-28T13:39:46;99257.52;;;1.30;59.17
57847;BME280;43675;50.030;21.952;2023-01-28T13:42:25;99264.41;;;1.16;59.17
57847;BME280;43675;50.030;21.952;2023-01-28T13:44:53;99260.60;;;1.04;59.33
57847;BME280;43675;50.030;21.952;2023-01-28T13:47:32;99264.75;;;0.97;59.69
57847;BME280;43675;50.030;21.952;2023-01-28T13:50:05;99267.05;;;0.93;59.87
57847;BME280;43675;50.030;21.952;2023-01-28T13:52:43;99264.09;;;0.89;59.95
57847;BME280;43675;50.030;21.952;2023-01-28T14:14:39;99281.42;;;0.48;61.08
57847;BME280;43675;50.030;21.952;2023-01-28T14:20:02;99282.11;;;0.42;61.32
57847;BME280;43675;50.030;21.952;2023-01-28T14:22:29;99285.34;;;0.39;61.45
57847;BME280;43675;50.030;21.952;2023-01-28T14:24:59;99284.71;;;0.36;61.49
57847;BME280;43675;50.030;21.952;2023-01-28T14:27:30;99283.13;;;0.34;61.88
57847;BME280;43675;50.030;21.952;2023-01-28T14:32:45;99282.89;;;0.33;62.07
57847;BME280;43675;50.030;21.952;2023-01-28T14:35:21;99282.67;;;0.32;62.39
57847;BME280;43675;50.030;21.952;2023-01-28T14:37:50;99285.89;;;0.33;62.24
57847;BME280;43675;50.030;21.952;2023-01-28T14:40:18;99282.14;;;0.34;62.43
57847;BME280;43675;50.030;21.952;2023-01-28T14:42:46;99282.84;;;0.32;62.39
57847;BME280;43675;50.030;21.952;2023-01-28T14:58:42;99290.34;;;0.07;63.26
57847;BME280;43675;50.030;21.952;2023-01-28T15:01:22;99298.52;;;0.08;63.34
57847;BME280;43675;50.030;21.952;2023-01-28T15:03:50;99296.49;;;0.13;63.51
57847;BME280;43675;50.030;21.952;2023-01-28T15:06:19;99297.42;;;0.12;63.47
57847;BME280;43675;50.030;21.952;2023-01-28T15:08:47;99299.42;;;0.12;63.68
57847;BME280;43675;50.030;21.952;2023-01-28T15:11:15;99301.05;;;0.11;63.76
57847;BME280;43675;50.030;21.952;2023-01-28T15:13:46;99299.84;;;0.13;63.90
57847;BME280;43675;50.030;21.952;2023-01-28T15:16:21;99303.99;;;0.29;63.63
57847;BME280;43675;50.030;21.952;2023-01-28T15:18:49;99306.85;;;0.44;63.24